sensor_id;sensor_type;location;lat;lon;timestamp;P1;durP1;ratioP1;P2;durP2;ratioP2
74892;SDS011;63446;56.272;43.922;2023-04-24T00:00:18;5.38;;;1.73;;
74892;SDS011;63446;56.272;43.922;2023-04-24T00:02:44;5.00;;;1.97;;
74892;SDS011;63446;56.272;43.922;2023-04-24T00:05:16;7.80;;;2.00;;
74892;SDS011;63446;56.272;43.922;2023-04-24T00:07:43;4.40;;;1.90;;
74892;SDS011;63446;56.272;43.922;2023-04-24T00:10:11;5.40;;;2.00;;
74892;SDS011;63446;56.272;43.922;2023-04-24T00:12:38;4.75;;;1.70;;
74892;SDS011;63446;56.272;43.922;2023-04-24T00:15:04;6.55;;;2.28;;
74892;SDS011;63446;56.272;43.922;2023-04-24T00:17:32;5.55;;;2.00;;
74892;SDS011;63446;56.272;43.922;2023-04-24T00:19:58;7.68;;;2.17;;
74892;SDS011;63446;56.272;43.922;2023-04-24T00:22:25;5.17;;;1.70;;
74892;SDS011;63446;56.272;43.922;2023-04-24T00:24:51;5.65;;;1.70;;
74892;SDS011;63446;56.272;43.922;2023-04-24T00:27:17;6.35;;;1.85;;
74892;SDS011;63446;56.272;43.922;2023-04-24T00:29:43;5.15;;;1.80;;
74892;SDS011;63446;56.272;43.922;2023-04-24T00:32:09;5.10;;;1.90;;
74892;SDS011;63446;56.272;43.922;2023-04-24T00:34:35;5.03;;;1.90;;
74892;SDS011;63446;56.272;43.922;2023-04-24T00:37:01;7.47;;;1.92;;
74892;SDS011;63446;56.272;43.922;2023-04-24T00:39:27;5.87;;;1.90;;
74892;SDS011;63446;56.272;43.922;2023-04-24T00:41:53;6.13;;;2.15;;
74892;SDS011;63446;56.272;43.922;2023-04-24T00:44:19;6.05;;;2.10;;
74892;SDS011;63446;56.272;43.922;2023-04-24T00:46:46;5.90;;;1.98;;
74892;SDS011;63446;56.272;43.922;2023-04-24T00:49:21;6.13;;;2.20;;
74892;SDS011;63446;56.272;43.922;2023-04-24T00:51:47;5.28;;;2.00;;
74892;SDS011;63446;56.272;43.922;2023-04-24T00:54:15;6.55;;;2.00;;
74892;SDS011;63446;56.272;43.922;2023-04-24T00:56:42;8.70;;;2.30;;
74892;SDS011;63446;56.272;43.922;2023-04-24T00:59:10;8.98;;;2.22;;
74892;SDS011;63446;56.272;43.922;2023-04-24T01:01:38;4.80;;;2.43;;
74892;SDS011;63446;56.272;43.922;2023-04-24T01:04:08;5.53;;;1.90;;
74892;SDS011;63446;56.272;43.922;2023-04-24T01:06:35;4.85;;;2.00;;
74892;SDS011;63446;56.272;43.922;2023-04-24T01:09:04;4.70;;;2.13;;
74892;SDS011;63446;56.272;43.922;2023-04-24T01:11:31;5.25;;;2.03;;
74892;SDS011;63446;56.272;43.922;2023-04-24T01:13:57;6.40;;;2.13;;
74892;SDS011;63446;56.272;43.922;2023-04-24T01:16:24;8.57;;;2.40;;
74892;SDS011;63446;56.272;43.922;2023-04-24T01:18:50;10.15;;;2.08;;
74892;SDS011;63446;56.272;43.922;2023-04-24T01:21:18;5.03;;;2.10;;
74892;SDS011;63446;56.272;43.922;2023-04-24T01:23:46;6.60;;;2.15;;
74892;SDS011;63446;56.272;43.922;2023-04-24T01:26:13;7.37;;;2.27;;
74892;SDS011;63446;56.272;43.922;2023-04-24T01:28:44;6.05;;;2.20;;
74892;SDS011;63446;56.272;43.922;2023-04-24T01:31:10;7.00;;;2.30;;
74892;SDS011;63446;56.272;43.922;2023-04-24T01:33:36;5.63;;;2.47;;
74892;SDS011;63446;56.272;43.922;2023-04-24T01:36:02;4.80;;;2.20;;
74892;SDS011;63446;56.272;43.922;2023-04-24T01:38:28;7.03;;;2.47;;
74892;SDS011;63446;56.272;43.922;2023-04-24T01:40:54;7.80;;;2.60;;
74892;SDS011;63446;56.272;43.922;2023-04-24T01:43:20;6.13;;;2.33;;
74892;SDS011;63446;56.272;43.922;2023-04-24T01:45:47;10.70;;;2.73;;
74892;SDS011;63446;56.272;43.922;2023-04-24T01:48:12;8.65;;;2.53;;
74892;SDS011;63446;56.272;43.922;2023-04-24T01:50:39;8.02;;;2.67;;
74892;SDS011;63446;56.272;43.922;2023-04-24T01:53:05;6.40;;;2.60;;
74892;SDS011;63446;56.272;43.922;2023-04-24T01:55:31;15.13;;;3.05;;
74892;SDS011;63446;56.272;43.922;2023-04-24T01:57:57;6.55;;;2.83;;
74892;SDS011;63446;56.272;43.922;2023-04-24T02:00:25;8.25;;;3.00;;
74892;SDS011;63446;56.272;43.922;2023-04-24T02:02:53;8.85;;;3.15;;
74892;SDS011;63446;56.272;43.922;2023-04-24T02:05:19;13.23;;;3.10;;
74892;SDS011;63446;56.272;43.922;2023-04-24T02:07:45;13.65;;;3.47;;
74892;SDS011;63446;56.272;43.922;2023-04-24T02:10:11;9.55;;;2.85;;
74892;SDS011;63446;56.272;43.922;2023-04-24T02:12:42;20.38;;;3.42;;
74892;SDS011;63446;56.272;43.922;2023-04-24T02:15:09;12.97;;;2.90;;
74892;SDS011;63446;56.272;43.922;2023-04-24T02:17:37;10.55;;;3.00;;
74892;SDS011;63446;56.272;43.922;2023-04-24T02:20:05;11.35;;;3.13;;
74892;SDS011;63446;56.272;43.922;2023-04-24T02:22:32;12.25;;;3.28;;
74892;SDS011;63446;56.272;43.922;2023-04-24T02:25:01;19.08;;;3.42;;
74892;SDS011;63446;56.272;43.922;2023-04-24T02:27:32;12.20;;;3.27;;
74892;SDS011;63446;56.272;43.922;2023-04-24T02:30:00;11.32;;;3.20;;
74892;SDS011;63446;56.272;43.922;2023-04-24T02:32:31;8.63;;;3.05;;
74892;SDS011;63446;56.272;43.922;2023-04-24T02:34:57;11.73;;;3.80;;
74892;SDS011;63446;56.272;43.922;2023-04-24T02:37:23;7.70;;;3.50;;
74892;SDS011;63446;56.272;43.922;2023-04-24T02:39:49;8.95;;;3.65;;
74892;SDS011;63446;56.272;43.922;2023-04-24T02:42:15;7.23;;;3.20;;
74892;SDS011;63446;56.272;43.922;2023-04-24T02:44:40;10.60;;;3.80;;
74892;SDS011;63446;56.272;43.922;2023-04-24T02:47:06;11.20;;;3.80;;
74892;SDS011;63446;56.272;43.922;2023-04-24T02:49:34;10.93;;;3.83;;
74892;SDS011;63446;56.272;43.922;2023-04-24T02:52:00;9.80;;;3.90;;
74892;SDS011;63446;56.272;43.922;2023-04-24T02:54:25;12.00;;;4.00;;
74892;SDS011;63446;56.272;43.922;2023-04-24T02:56:52;11.27;;;3.80;;
74892;SDS011;63446;56.272;43.922;2023-04-24T02:59:18;8.82;;;3.80;;
74892;SDS011;63446;56.272;43.922;2023-04-24T03:01:44;7.78;;;3.97;;
74892;SDS011;63446;56.272;43.922;2023-04-24T03:04:10;8.93;;;4.07;;
74892;SDS011;63446;56.272;43.922;2023-04-24T03:06:37;9.25;;;4.03;;
74892;SDS011;63446;56.272;43.922;2023-04-24T03:09:03;8.02;;;4.10;;
74892;SDS011;63446;56.272;43.922;2023-04-24T03:11:31;9.13;;;4.55;;
74892;SDS011;63446;56.272;43.922;2023-04-24T03:13:57;7.37;;;4.10;;
74892;SDS011;63446;56.272;43.922;2023-04-24T03:16:22;8.15;;;4.18;;
74892;SDS011;63446;56.272;43.922;2023-04-24T03:18:49;11.10;;;4.63;;
74892;SDS011;63446;56.272;43.922;2023-04-24T03:21:15;11.27;;;5.60;;
74892;SDS011;63446;56.272;43.922;2023-04-24T03:23:42;10.30;;;5.25;;
74892;SDS011;63446;56.272;43.922;2023-04-24T03:26:09;8.75;;;4.53;;
74892;SDS011;63446;56.272;43.922;2023-04-24T03:28:40;8.65;;;5.30;;
74892;SDS011;63446;56.272;43.922;2023-04-24T03:31:06;9.98;;;5.47;;
74892;SDS011;63446;56.272;43.922;2023-04-24T03:33:35;12.10;;;5.80;;
74892;SDS011;63446;56.272;43.922;2023-04-24T03:36:02;10.88;;;6.85;;
74892;SDS011;63446;56.272;43.922;2023-04-24T03:38:36;12.20;;;8.65;;
74892;SDS011;63446;56.272;43.922;2023-04-24T03:41:22;13.10;;;8.38;;
74892;SDS011;63446;56.272;43.922;2023-04-24T03:43:53;13.68;;;8.85;;
74892;SDS011;63446;56.272;43.922;2023-04-24T03:46:19;14.13;;;8.70;;
74892;SDS011;63446;56.272;43.922;2023-04-24T03:48:52;15.65;;;9.93;;
74892;SDS011;63446;56.272;43.922;2023-04-24T03:51:21;16.58;;;12.18;;
74892;SDS011;63446;56.272;43.922;2023-04-24T03:53:50;30.67;;;19.40;;
74892;SDS011;63446;56.272;43.922;2023-04-24T03:56:18;30.33;;;18.92;;
74892;SDS011;63446;56.272;43.922;2023-04-24T03:58:45;26.73;;;18.67;;
74892;SDS011;63446;56.272;43.922;2023-04-24T04:01:11;24.63;;;19.05;;
74892;SDS011;63446;56.272;43.922;2023-04-24T04:03:45;29.20;;;17.20;;
74892;SDS011;63446;56.272;43.922;2023-04-24T04:06:16;24.57;;;17.00;;
74892;SDS011;63446;56.272;43.922;2023-04-24T04:08:42;25.52;;;19.13;;
74892;SDS011;63446;56.272;43.922;2023-04-24T04:11:08;23.73;;;16.73;;
74892;SDS011;63446;56.272;43.922;2023-04-24T04:13:34;26.48;;;18.23;;
74892;SDS011;63446;56.272;43.922;2023-04-24T04:16:01;26.20;;;17.50;;
74892;SDS011;63446;56.272;43.922;2023-04-24T04:18:26;30.67;;;21.65;;
74892;SDS011;63446;56.272;43.922;2023-04-24T04:20:52;32.25;;;21.67;;
74892;SDS011;63446;56.272;43.922;2023-04-24T04:23:18;26.90;;;17.37;;
74892;SDS011;63446;56.272;43.922;2023-04-24T04:26:03;27.95;;;20.23;;
74892;SDS011;63446;56.272;43.922;2023-04-24T04:28:46;39.38;;;26.33;;
74892;SDS011;63446;56.272;43.922;2023-04-24T04:31:13;37.58;;;25.80;;
74892;SDS011;63446;56.272;43.922;2023-04-24T04:33:39;37.67;;;23.23;;
74892;SDS011;63446;56.272;43.922;2023-04-24T04:36:06;27.40;;;21.38;;
74892;SDS011;63446;56.272;43.922;2023-04-24T04:38:37;24.52;;;17.45;;
74892;SDS011;63446;56.272;43.922;2023-04-24T04:41:14;25.67;;;16.45;;
74892;SDS011;63446;56.272;43.922;2023-04-24T04:43:43;16.77;;;12.43;;
74892;SDS011;63446;56.272;43.922;2023-04-24T04:46:10;20.67;;;12.65;;
74892;SDS011;63446;56.272;43.922;2023-04-24T04:48:55;16.77;;;13.07;;
74892;SDS011;63446;56.272;43.922;2023-04-24T04:51:23;17.92;;;12.80;;
74892;SDS011;63446;56.272;43.922;2023-04-24T04:53:49;15.00;;;11.75;;
74892;SDS011;63446;56.272;43.922;2023-04-24T04:56:15;18.13;;;12.33;;
74892;SDS011;63446;56.272;43.922;2023-04-24T04:58:44;16.77;;;11.38;;
74892;SDS011;63446;56.272;43.922;2023-04-24T05:01:13;17.20;;;12.60;;
74892;SDS011;63446;56.272;43.922;2023-04-24T05:03:42;17.27;;;12.13;;
74892;SDS011;63446;56.272;43.922;2023-04-24T05:06:11;14.20;;;12.70;;
74892;SDS011;63446;56.272;43.922;2023-04-24T05:08:38;17.53;;;12.67;;
74892;SDS011;63446;56.272;43.922;2023-04-24T05:11:08;51.42;;;22.45;;
74892;SDS011;63446;56.272;43.922;2023-04-24T05:13:34;23.23;;;17.10;;
74892;SDS011;63446;56.272;43.922;2023-04-24T05:16:02;28.25;;;21.90;;
74892;SDS011;63446;56.272;43.922;2023-04-24T05:18:30;30.17;;;24.53;;
74892;SDS011;63446;56.272;43.922;2023-04-24T05:20:57;39.40;;;25.65;;
74892;SDS011;63446;56.272;43.922;2023-04-24T05:23:23;28.08;;;21.63;;
74892;SDS011;63446;56.272;43.922;2023-04-24T05:25:52;31.58;;;21.80;;
74892;SDS011;63446;56.272;43.922;2023-04-24T05:28:19;37.22;;;27.08;;
74892;SDS011;63446;56.272;43.922;2023-04-24T05:30:54;30.67;;;24.50;;
74892;SDS011;63446;56.272;43.922;2023-04-24T05:33:23;36.20;;;29.35;;
74892;SDS011;63446;56.272;43.922;2023-04-24T05:35:49;43.88;;;33.72;;
74892;SDS011;63446;56.272;43.922;2023-04-24T05:38:16;36.25;;;31.17;;
74892;SDS011;63446;56.272;43.922;2023-04-24T05:40:45;35.40;;;29.80;;
74892;SDS011;63446;56.272;43.922;2023-04-24T05:43:11;36.47;;;31.55;;
74892;SDS011;63446;56.272;43.922;2023-04-24T05:45:38;35.80;;;26.33;;
74892;SDS011;63446;56.272;43.922;2023-04-24T05:48:04;30.15;;;23.10;;
74892;SDS011;63446;56.272;43.922;2023-04-24T05:50:29;41.07;;;24.90;;
74892;SDS011;63446;56.272;43.922;2023-04-24T05:52:56;34.05;;;22.58;;
74892;SDS011;63446;56.272;43.922;2023-04-24T05:55:28;26.70;;;19.63;;
74892;SDS011;63446;56.272;43.922;2023-04-24T05:57:54;28.38;;;16.73;;
74892;SDS011;63446;56.272;43.922;2023-04-24T06:00:20;28.42;;;16.42;;
74892;SDS011;63446;56.272;43.922;2023-04-24T06:02:56;31.87;;;17.20;;
74892;SDS011;63446;56.272;43.922;2023-04-24T06:05:23;33.70;;;17.13;;
74892;SDS011;63446;56.272;43.922;2023-04-24T06:07:52;26.17;;;13.10;;
74892;SDS011;63446;56.272;43.922;2023-04-24T06:10:20;24.63;;;13.05;;
74892;SDS011;63446;56.272;43.922;2023-04-24T06:12:45;32.03;;;16.77;;
74892;SDS011;63446;56.272;43.922;2023-04-24T06:15:16;30.90;;;14.15;;
74892;SDS011;63446;56.272;43.922;2023-04-24T06:18:08;31.58;;;19.17;;
74892;SDS011;63446;56.272;43.922;2023-04-24T06:20:37;25.08;;;14.88;;
74892;SDS011;63446;56.272;43.922;2023-04-24T06:23:03;21.05;;;11.52;;
74892;SDS011;63446;56.272;43.922;2023-04-24T06:25:32;27.93;;;9.40;;
74892;SDS011;63446;56.272;43.922;2023-04-24T06:27:58;30.60;;;12.18;;
74892;SDS011;63446;56.272;43.922;2023-04-24T06:30:24;30.45;;;12.73;;
74892;SDS011;63446;56.272;43.922;2023-04-24T06:32:50;19.07;;;10.67;;
74892;SDS011;63446;56.272;43.922;2023-04-24T06:35:16;18.40;;;9.30;;
74892;SDS011;63446;56.272;43.922;2023-04-24T06:37:46;14.70;;;6.07;;
74892;SDS011;63446;56.272;43.922;2023-04-24T06:40:11;13.95;;;5.88;;
74892;SDS011;63446;56.272;43.922;2023-04-24T06:42:37;19.50;;;8.82;;
74892;SDS011;63446;56.272;43.922;2023-04-24T06:45:07;18.20;;;7.60;;
74892;SDS011;63446;56.272;43.922;2023-04-24T06:47:33;16.10;;;8.03;;
74892;SDS011;63446;56.272;43.922;2023-04-24T06:50:00;19.90;;;7.55;;
74892;SDS011;63446;56.272;43.922;2023-04-24T06:52:26;12.93;;;5.50;;
74892;SDS011;63446;56.272;43.922;2023-04-24T06:54:52;16.57;;;5.10;;
74892;SDS011;63446;56.272;43.922;2023-04-24T06:57:26;17.15;;;6.03;;
74892;SDS011;63446;56.272;43.922;2023-04-24T06:59:51;15.40;;;5.60;;
74892;SDS011;63446;56.272;43.922;2023-04-24T07:02:17;15.63;;;6.43;;
74892;SDS011;63446;56.272;43.922;2023-04-24T07:04:44;26.02;;;5.53;;
74892;SDS011;63446;56.272;43.922;2023-04-24T07:07:11;15.43;;;4.57;;
74892;SDS011;63446;56.272;43.922;2023-04-24T07:09:39;9.10;;;4.60;;
74892;SDS011;63446;56.272;43.922;2023-04-24T07:12:11;10.57;;;5.50;;
74892;SDS011;63446;56.272;43.922;2023-04-24T07:14:37;12.77;;;4.90;;
74892;SDS011;63446;56.272;43.922;2023-04-24T07:17:04;11.20;;;4.18;;
74892;SDS011;63446;56.272;43.922;2023-04-24T07:19:34;10.77;;;5.40;;
74892;SDS011;63446;56.272;43.922;2023-04-24T07:22:03;12.32;;;3.97;;
74892;SDS011;63446;56.272;43.922;2023-04-24T07:24:29;10.55;;;3.60;;
74892;SDS011;63446;56.272;43.922;2023-04-24T07:26:58;8.33;;;3.30;;
74892;SDS011;63446;56.272;43.922;2023-04-24T07:29:24;31.60;;;4.55;;
74892;SDS011;63446;56.272;43.922;2023-04-24T07:31:50;9.77;;;4.25;;
74892;SDS011;63446;56.272;43.922;2023-04-24T07:34:16;10.63;;;3.50;;
74892;SDS011;63446;56.272;43.922;2023-04-24T07:36:42;51.57;;;6.60;;
74892;SDS011;63446;56.272;43.922;2023-04-24T07:39:08;19.05;;;4.85;;
74892;SDS011;63446;56.272;43.922;2023-04-24T07:41:34;16.02;;;3.78;;
74892;SDS011;63446;56.272;43.922;2023-04-24T07:44:00;8.70;;;3.60;;
74892;SDS011;63446;56.272;43.922;2023-04-24T07:46:26;12.63;;;3.67;;
74892;SDS011;63446;56.272;43.922;2023-04-24T07:48:55;7.03;;;3.40;;
74892;SDS011;63446;56.272;43.922;2023-04-24T07:51:21;8.60;;;3.80;;
74892;SDS011;63446;56.272;43.922;2023-04-24T07:53:48;24.05;;;4.70;;
74892;SDS011;63446;56.272;43.922;2023-04-24T07:56:14;17.52;;;4.47;;
74892;SDS011;63446;56.272;43.922;2023-04-24T07:58:40;14.77;;;4.50;;
74892;SDS011;63446;56.272;43.922;2023-04-24T08:01:07;14.10;;;4.30;;
74892;SDS011;63446;56.272;43.922;2023-04-24T08:03:33;10.95;;;4.22;;
74892;SDS011;63446;56.272;43.922;2023-04-24T08:06:00;29.67;;;6.10;;
74892;SDS011;63446;56.272;43.922;2023-04-24T08:08:25;13.97;;;5.73;;
74892;SDS011;63446;56.272;43.922;2023-04-24T08:10:51;11.50;;;3.92;;
74892;SDS011;63446;56.272;43.922;2023-04-24T08:13:17;9.40;;;4.47;;
74892;SDS011;63446;56.272;43.922;2023-04-24T08:15:43;35.30;;;5.50;;
74892;SDS011;63446;56.272;43.922;2023-04-24T08:18:09;10.85;;;3.70;;
74892;SDS011;63446;56.272;43.922;2023-04-24T08:20:37;15.88;;;4.10;;
74892;SDS011;63446;56.272;43.922;2023-04-24T08:23:03;12.47;;;3.73;;
74892;SDS011;63446;56.272;43.922;2023-04-24T08:25:30;9.82;;;3.75;;
74892;SDS011;63446;56.272;43.922;2023-04-24T08:27:55;9.63;;;4.40;;
74892;SDS011;63446;56.272;43.922;2023-04-24T08:30:22;13.30;;;4.35;;
74892;SDS011;63446;56.272;43.922;2023-04-24T08:32:48;16.65;;;4.75;;
74892;SDS011;63446;56.272;43.922;2023-04-24T08:35:14;10.20;;;4.18;;
74892;SDS011;63446;56.272;43.922;2023-04-24T08:37:40;10.30;;;4.10;;
74892;SDS011;63446;56.272;43.922;2023-04-24T08:40:15;9.02;;;3.72;;
74892;SDS011;63446;56.272;43.922;2023-04-24T08:42:42;12.13;;;3.88;;
74892;SDS011;63446;56.272;43.922;2023-04-24T08:45:10;11.35;;;3.83;;
74892;SDS011;63446;56.272;43.922;2023-04-24T08:47:40;12.37;;;3.70;;
74892;SDS011;63446;56.272;43.922;2023-04-24T08:50:07;9.20;;;4.07;;
74892;SDS011;63446;56.272;43.922;2023-04-24T08:52:35;16.20;;;3.70;;
74892;SDS011;63446;56.272;43.922;2023-04-24T08:55:01;19.40;;;3.50;;
74892;SDS011;63446;56.272;43.922;2023-04-24T08:57:31;14.10;;;3.70;;
74892;SDS011;63446;56.272;43.922;2023-04-24T08:59:58;9.03;;;3.43;;
74892;SDS011;63446;56.272;43.922;2023-04-24T09:02:25;7.32;;;3.53;;
74892;SDS011;63446;56.272;43.922;2023-04-24T09:04:52;8.45;;;3.33;;
74892;SDS011;63446;56.272;43.922;2023-04-24T09:07:19;8.52;;;2.95;;
74892;SDS011;63446;56.272;43.922;2023-04-24T09:09:45;8.48;;;2.90;;
74892;SDS011;63446;56.272;43.922;2023-04-24T09:12:11;9.13;;;3.10;;
74892;SDS011;63446;56.272;43.922;2023-04-24T09:14:38;11.55;;;3.22;;
74892;SDS011;63446;56.272;43.922;2023-04-24T09:17:08;8.82;;;2.72;;
74892;SDS011;63446;56.272;43.922;2023-04-24T09:19:34;6.45;;;2.78;;
74892;SDS011;63446;56.272;43.922;2023-04-24T09:22:00;7.23;;;3.03;;
74892;SDS011;63446;56.272;43.922;2023-04-24T09:24:31;6.93;;;2.65;;
74892;SDS011;63446;56.272;43.922;2023-04-24T09:26:58;11.27;;;2.78;;
74892;SDS011;63446;56.272;43.922;2023-04-24T09:29:24;5.78;;;2.85;;
74892;SDS011;63446;56.272;43.922;2023-04-24T09:31:51;6.93;;;2.93;;
74892;SDS011;63446;56.272;43.922;2023-04-24T09:34:24;5.68;;;2.63;;
74892;SDS011;63446;56.272;43.922;2023-04-24T09:36:53;5.45;;;2.30;;
74892;SDS011;63446;56.272;43.922;2023-04-24T09:39:20;5.95;;;2.60;;
74892;SDS011;63446;56.272;43.922;2023-04-24T09:41:47;5.80;;;2.42;;
74892;SDS011;63446;56.272;43.922;2023-04-24T09:44:22;6.83;;;2.70;;
74892;SDS011;63446;56.272;43.922;2023-04-24T09:46:54;11.95;;;3.15;;
74892;SDS011;63446;56.272;43.922;2023-04-24T09:49:23;9.25;;;3.00;;
74892;SDS011;63446;56.272;43.922;2023-04-24T09:52:06;8.23;;;2.90;;
74892;SDS011;63446;56.272;43.922;2023-04-24T09:54:33;8.48;;;2.63;;
74892;SDS011;63446;56.272;43.922;2023-04-24T09:56:59;6.73;;;2.60;;
74892;SDS011;63446;56.272;43.922;2023-04-24T09:59:28;9.95;;;3.00;;
74892;SDS011;63446;56.272;43.922;2023-04-24T10:01:54;7.57;;;2.60;;
74892;SDS011;63446;56.272;43.922;2023-04-24T10:04:23;8.57;;;2.50;;
74892;SDS011;63446;56.272;43.922;2023-04-24T10:06:53;16.00;;;2.80;;
74892;SDS011;63446;56.272;43.922;2023-04-24T10:09:22;7.43;;;2.53;;
74892;SDS011;63446;56.272;43.922;2023-04-24T10:11:50;5.75;;;2.60;;
74892;SDS011;63446;56.272;43.922;2023-04-24T10:14:22;8.07;;;2.53;;
74892;SDS011;63446;56.272;43.922;2023-04-24T10:16:50;9.43;;;2.88;;
74892;SDS011;63446;56.272;43.922;2023-04-24T10:19:19;7.15;;;2.30;;
74892;SDS011;63446;56.272;43.922;2023-04-24T10:21:45;6.13;;;2.60;;
74892;SDS011;63446;56.272;43.922;2023-04-24T10:24:16;10.68;;;2.90;;
74892;SDS011;63446;56.272;43.922;2023-04-24T10:26:44;10.07;;;2.80;;
74892;SDS011;63446;56.272;43.922;2023-04-24T10:29:12;13.93;;;5.30;;
74892;SDS011;63446;56.272;43.922;2023-04-24T10:31:39;7.35;;;3.35;;
74892;SDS011;63446;56.272;43.922;2023-04-24T10:34:08;17.63;;;2.97;;
74892;SDS011;63446;56.272;43.922;2023-04-24T10:36:38;8.57;;;2.80;;
74892;SDS011;63446;56.272;43.922;2023-04-24T10:39:08;10.90;;;2.60;;
74892;SDS011;63446;56.272;43.922;2023-04-24T10:41:38;8.30;;;2.60;;
74892;SDS011;63446;56.272;43.922;2023-04-24T10:46:31;8.20;;;3.13;;
74892;SDS011;63446;56.272;43.922;2023-04-24T10:48:57;7.57;;;3.00;;
74892;SDS011;63446;56.272;43.922;2023-04-24T10:51:24;8.32;;;2.45;;
74892;SDS011;63446;56.272;43.922;2023-04-24T10:54:28;6.50;;;2.58;;
74892;SDS011;63446;56.272;43.922;2023-04-24T10:59:51;8.23;;;2.10;;
74892;SDS011;63446;56.272;43.922;2023-04-24T11:02:38;6.03;;;2.30;;
74892;SDS011;63446;56.272;43.922;2023-04-24T11:05:06;7.93;;;2.50;;
74892;SDS011;63446;56.272;43.922;2023-04-24T11:10:38;8.45;;;2.30;;
74892;SDS011;63446;56.272;43.922;2023-04-24T11:13:05;6.97;;;2.57;;
74892;SDS011;63446;56.272;43.922;2023-04-24T11:15:31;7.03;;;2.67;;
74892;SDS011;63446;56.272;43.922;2023-04-24T11:17:57;10.65;;;2.30;;
74892;SDS011;63446;56.272;43.922;2023-04-24T11:20:23;7.30;;;2.37;;
74892;SDS011;63446;56.272;43.922;2023-04-24T11:22:54;6.43;;;2.33;;
74892;SDS011;63446;56.272;43.922;2023-04-24T11:25:21;4.82;;;2.22;;
74892;SDS011;63446;56.272;43.922;2023-04-24T11:27:51;9.73;;;2.42;;
74892;SDS011;63446;56.272;43.922;2023-04-24T11:30:29;11.95;;;2.50;;
74892;SDS011;63446;56.272;43.922;2023-04-24T11:32:56;10.70;;;2.40;;
74892;SDS011;63446;56.272;43.922;2023-04-24T11:35:29;6.13;;;2.22;;
74892;SDS011;63446;56.272;43.922;2023-04-24T11:37:56;6.55;;;2.05;;
74892;SDS011;63446;56.272;43.922;2023-04-24T11:40:22;7.80;;;2.30;;
74892;SDS011;63446;56.272;43.922;2023-04-24T11:42:50;8.60;;;2.50;;
74892;SDS011;63446;56.272;43.922;2023-04-24T11:45:18;7.43;;;2.33;;
74892;SDS011;63446;56.272;43.922;2023-04-24T11:47:46;6.55;;;2.50;;
74892;SDS011;63446;56.272;43.922;2023-04-24T11:50:13;7.05;;;2.17;;
74892;SDS011;63446;56.272;43.922;2023-04-24T11:52:40;5.18;;;2.05;;
74892;SDS011;63446;56.272;43.922;2023-04-24T11:55:07;8.43;;;2.67;;
74892;SDS011;63446;56.272;43.922;2023-04-24T11:57:39;9.00;;;2.67;;
74892;SDS011;63446;56.272;43.922;2023-04-24T12:00:15;5.93;;;2.25;;
74892;SDS011;63446;56.272;43.922;2023-04-24T12:02:42;11.25;;;2.65;;
74892;SDS011;63446;56.272;43.922;2023-04-24T12:05:08;5.17;;;2.13;;
74892;SDS011;63446;56.272;43.922;2023-04-24T12:07:41;10.43;;;2.30;;
74892;SDS011;63446;56.272;43.922;2023-04-24T12:10:08;12.38;;;2.47;;
74892;SDS011;63446;56.272;43.922;2023-04-24T12:12:34;7.63;;;2.50;;
74892;SDS011;63446;56.272;43.922;2023-04-24T12:15:00;7.07;;;2.40;;
74892;SDS011;63446;56.272;43.922;2023-04-24T12:17:32;9.80;;;2.42;;
74892;SDS011;63446;56.272;43.922;2023-04-24T12:20:03;6.78;;;2.33;;
74892;SDS011;63446;56.272;43.922;2023-04-24T12:22:43;8.27;;;2.28;;
74892;SDS011;63446;56.272;43.922;2023-04-24T12:25:15;7.00;;;2.40;;
74892;SDS011;63446;56.272;43.922;2023-04-24T12:27:44;6.37;;;2.17;;
74892;SDS011;63446;56.272;43.922;2023-04-24T12:30:14;6.72;;;2.28;;
74892;SDS011;63446;56.272;43.922;2023-04-24T12:32:46;6.72;;;2.38;;
74892;SDS011;63446;56.272;43.922;2023-04-24T12:35:24;6.75;;;2.67;;
74892;SDS011;63446;56.272;43.922;2023-04-24T12:37:51;8.75;;;2.67;;
74892;SDS011;63446;56.272;43.922;2023-04-24T12:40:19;6.97;;;2.70;;
74892;SDS011;63446;56.272;43.922;2023-04-24T12:42:48;6.85;;;3.28;;
74892;SDS011;63446;56.272;43.922;2023-04-24T12:45:16;11.70;;;3.03;;
74892;SDS011;63446;56.272;43.922;2023-04-24T12:47:45;9.95;;;1.95;;
74892;SDS011;63446;56.272;43.922;2023-04-24T12:50:12;5.33;;;2.37;;
74892;SDS011;63446;56.272;43.922;2023-04-24T12:52:39;5.43;;;2.30;;
74892;SDS011;63446;56.272;43.922;2023-04-24T12:55:06;10.70;;;2.35;;
74892;SDS011;63446;56.272;43.922;2023-04-24T12:57:36;8.60;;;2.40;;
74892;SDS011;63446;56.272;43.922;2023-04-24T13:00:03;5.65;;;2.45;;
74892;SDS011;63446;56.272;43.922;2023-04-24T13:02:33;22.70;;;2.90;;
74892;SDS011;63446;56.272;43.922;2023-04-24T13:05:01;7.47;;;2.30;;
74892;SDS011;63446;56.272;43.922;2023-04-24T13:07:32;6.95;;;2.08;;
74892;SDS011;63446;56.272;43.922;2023-04-24T13:09:58;5.03;;;2.40;;
74892;SDS011;63446;56.272;43.922;2023-04-24T13:12:24;9.60;;;2.50;;
74892;SDS011;63446;56.272;43.922;2023-04-24T13:14:51;9.33;;;2.13;;
74892;SDS011;63446;56.272;43.922;2023-04-24T13:17:16;9.57;;;2.35;;
74892;SDS011;63446;56.272;43.922;2023-04-24T13:19:43;6.13;;;2.10;;
74892;SDS011;63446;56.272;43.922;2023-04-24T13:22:11;4.90;;;2.00;;
74892;SDS011;63446;56.272;43.922;2023-04-24T13:24:38;9.67;;;2.10;;
74892;SDS011;63446;56.272;43.922;2023-04-24T13:27:06;6.38;;;2.00;;
74892;SDS011;63446;56.272;43.922;2023-04-24T13:29:32;3.67;;;1.63;;
74892;SDS011;63446;56.272;43.922;2023-04-24T13:31:58;4.47;;;1.97;;
74892;SDS011;63446;56.272;43.922;2023-04-24T13:34:24;7.93;;;2.60;;
74892;SDS011;63446;56.272;43.922;2023-04-24T13:36:52;5.70;;;1.92;;
74892;SDS011;63446;56.272;43.922;2023-04-24T13:43:30;5.65;;;1.90;;
74892;SDS011;63446;56.272;43.922;2023-04-24T13:50:21;9.50;;;1.88;;
74892;SDS011;63446;56.272;43.922;2023-04-24T13:56:59;4.03;;;1.67;;
74892;SDS011;63446;56.272;43.922;2023-04-24T14:03:52;5.90;;;1.80;;
74892;SDS011;63446;56.272;43.922;2023-04-24T14:10:29;44.28;;;14.77;;
74892;SDS011;63446;56.272;43.922;2023-04-24T14:21:45;15.40;;;5.43;;
74892;SDS011;63446;56.272;43.922;2023-04-24T14:28:29;9.45;;;3.30;;
74892;SDS011;63446;56.272;43.922;2023-04-24T14:35:20;54.85;;;21.23;;
74892;SDS011;63446;56.272;43.922;2023-04-24T14:42:11;45.30;;;19.65;;
74892;SDS011;63446;56.272;43.922;2023-04-24T14:47:53;59.60;;;27.42;;
74892;SDS011;63446;56.272;43.922;2023-04-24T14:50:19;112.63;;;53.95;;
74892;SDS011;63446;56.272;43.922;2023-04-24T14:52:45;12.98;;;5.28;;
74892;SDS011;63446;56.272;43.922;2023-04-24T14:55:11;29.80;;;14.93;;
74892;SDS011;63446;56.272;43.922;2023-04-24T14:57:37;10.47;;;5.10;;
74892;SDS011;63446;56.272;43.922;2023-04-24T15:00:06;11.07;;;4.85;;
74892;SDS011;63446;56.272;43.922;2023-04-24T15:02:35;15.80;;;7.18;;
74892;SDS011;63446;56.272;43.922;2023-04-24T15:05:06;45.72;;;20.45;;
74892;SDS011;63446;56.272;43.922;2023-04-24T15:07:33;17.50;;;6.67;;
74892;SDS011;63446;56.272;43.922;2023-04-24T15:10:00;20.40;;;9.20;;
74892;SDS011;63446;56.272;43.922;2023-04-24T15:12:30;22.50;;;9.48;;
74892;SDS011;63446;56.272;43.922;2023-04-24T15:14:57;12.20;;;5.40;;
74892;SDS011;63446;56.272;43.922;2023-04-24T15:17:26;7.95;;;3.10;;
74892;SDS011;63446;56.272;43.922;2023-04-24T15:19:53;9.10;;;2.90;;
74892;SDS011;63446;56.272;43.922;2023-04-24T15:22:19;13.18;;;4.10;;
74892;SDS011;63446;56.272;43.922;2023-04-24T15:24:47;9.73;;;3.08;;